createdAt,value
2018-07-05T07:46:22.671Z,1996.00
2018-07-05T07:47:22.542Z,2136.00
2018-07-05T07:48:22.829Z,2244.00
2018-07-05T07:49:22.505Z,2300.00
2018-07-05T07:50:22.459Z,2344.00
2018-07-05T07:51:22.527Z,2360.00
2018-07-05T07:52:22.400Z,2372.00
2018-07-05T07:53:22.575Z,2364.00
2018-07-05T07:54:22.372Z,2404.00
2018-07-05T07:55:22.351Z,2436.00
2018-07-05T07:56:22.337Z,2424.00
2018-07-05T07:57:22.316Z,2468.00
2018-07-05T07:58:22.397Z,2540.00
2018-07-05T07:59:22.334Z,2588.00
2018-07-05T08:00:22.303Z,2556.00
2018-07-05T08:01:22.273Z,2548.00
2018-07-05T08:02:22.272Z,2616.00
2018-07-05T08:03:22.346Z,2696.00
2018-07-05T08:04:22.252Z,2800.00
2018-07-05T08:05:22.307Z,2916.00
2018-07-05T08:06:22.231Z,3020.00
2018-07-05T08:07:22.236Z,3116.00
2018-07-05T08:08:22.275Z,3204.00
2018-07-05T08:09:22.369Z,3288.00
2018-07-05T08:10:22.193Z,3372.00
2018-07-05T08:11:22.189Z,3428.00
2018-07-05T08:12:22.215Z,3476.00
2018-07-05T08:13:22.236Z,3552.00
2018-07-05T08:14:22.231Z,3596.00
2018-07-05T08:15:22.178Z,3672.00
2018-07-05T08:16:22.121Z,3808.00
2018-07-05T08:17:22.119Z,3760.00
2018-07-05T08:18:22.130Z,3808.00
2018-07-05T08:19:22.581Z,3844.00
2018-07-05T08:20:22.132Z,3808.00
2018-07-05T08:21:22.249Z,3848.00
2018-07-05T08:22:22.194Z,3840.00
2018-07-05T08:23:22.035Z,3784.00
2018-07-05T08:24:22.103Z,3732.00
2018-07-05T08:25:22.021Z,3672.00
2018-07-05T08:26:22.011Z,3640.00
2018-07-05T08:27:22.582Z,3580.00
2018-07-05T08:28:22.004Z,3568.00
2018-07-05T08:29:22.073Z,3572.00
2018-07-05T08:30:21.973Z,3564.00
2018-07-05T08:31:21.965Z,3572.00
2018-07-05T08:32:21.944Z,3576.00
2018-07-05T08:33:21.970Z,3576.00
2018-07-05T08:34:21.998Z,3592.00
2018-07-05T08:35:21.912Z,3612.00
2018-07-05T08:36:21.918Z,3620.00
2018-07-05T08:37:21.883Z,3636.00
2018-07-05T08:38:21.883Z,3648.00
2018-07-05T08:39:21.932Z,3632.00
2018-07-05T08:40:21.871Z,3672.00
2018-07-05T08:41:21.893Z,3728.00
2018-07-05T08:42:21.832Z,3784.00
2018-07-05T08:43:21.815Z,3756.00
2018-07-05T08:44:22.045Z,3736.00
2018-07-05T08:45:21.809Z,3752.00
2018-07-05T08:46:21.993Z,3760.00
2018-07-05T08:47:21.848Z,3760.00
2018-07-05T08:48:21.788Z,3708.00
2018-07-05T08:49:21.828Z,3688.00
2018-07-05T08:50:21.748Z,3636.00
2018-07-05T08:51:21.739Z,3564.00
2018-07-05T08:52:21.729Z,3528.00
2018-07-05T08:53:21.716Z,3464.00
2018-07-05T08:54:21.801Z,3432.00
2018-07-05T08:55:21.695Z,3416.00
2018-07-05T08:56:21.685Z,3400.00
2018-07-05T08:57:21.709Z,3376.00
2018-07-05T08:58:21.877Z,3376.00
2018-07-05T08:59:21.718Z,3384.00
2018-07-05T09:00:21.636Z,3396.00
2018-07-05T09:01:21.622Z,3436.00
2018-07-05T09:02:21.706Z,3460.00
2018-07-05T09:03:21.611Z,3488.00
2018-07-05T09:04:21.786Z,3480.00
2018-07-05T09:05:21.680Z,3476.00
2018-07-05T09:06:21.579Z,3468.00
2018-07-05T09:07:21.568Z,3456.00
2018-07-05T09:08:21.551Z,3472.00
2018-07-05T09:09:21.605Z,3484.00
2018-07-05T09:10:21.541Z,3512.00
2018-07-05T09:11:21.506Z,3572.00
2018-07-05T09:12:21.510Z,3628.00
2018-07-05T09:13:21.486Z,3672.00
2018-07-05T09:14:21.567Z,3692.00
2018-07-05T09:15:21.491Z,3704.00
2018-07-05T09:16:21.481Z,3728.00
2018-07-05T09:17:21.527Z,3772.00
2018-07-05T09:18:21.609Z,3832.00
2018-07-05T09:19:21.515Z,3892.00
2018-07-05T09:20:21.423Z,3948.00
2018-07-05T09:21:21.423Z,4008.00
2018-07-05T09:22:21.426Z,4096.00
2018-07-05T09:23:21.442Z,4176.00
2018-07-05T09:24:21.445Z,4220.00
2018-07-05T09:25:21.366Z,4236.00
2018-07-05T09:26:21.358Z,4276.00
2018-07-05T09:27:21.358Z,4296.00
2018-07-05T09:28:21.329Z,4344.00
2018-07-05T09:29:21.375Z,4380.00
2018-07-05T09:30:21.301Z,4408.00
2018-07-05T09:31:21.313Z,4432.00
2018-07-05T09:32:21.288Z,4448.00
2018-07-05T09:33:21.272Z,4468.00
2018-07-05T09:34:21.330Z,4496.00
2018-07-05T09:35:21.257Z,4516.00
2018-07-05T09:36:21.244Z,4520.00
2018-07-05T09:37:21.282Z,4548.00
2018-07-05T09:38:21.219Z,4588.00
2018-07-05T09:39:21.260Z,4576.00
2018-07-05T09:40:21.191Z,4544.00
2018-07-05T09:41:21.181Z,4520.00
2018-07-05T09:42:21.173Z,4524.00
2018-07-05T09:43:21.160Z,4564.00
2018-07-05T09:44:21.211Z,4584.00
2018-07-05T09:45:21.140Z,4604.00
2018-07-05T09:46:21.135Z,4612.00
2018-07-05T09:47:21.119Z,4664.00
2018-07-05T09:48:21.111Z,4700.00
2018-07-05T09:49:21.154Z,4728.00
2018-07-05T09:50:21.093Z,4756.00
2018-07-05T09:51:21.074Z,4744.00
2018-07-05T09:52:21.127Z,4724.00
2018-07-05T09:53:21.052Z,4756.00
2018-07-05T09:54:21.045Z,4712.00
2018-07-05T09:55:21.089Z,4688.00
2018-07-05T09:56:21.028Z,4688.00
2018-07-05T09:57:21.009Z,4692.00
2018-07-05T09:58:21.001Z,4688.00
2018-07-05T09:59:20.990Z,4680.00
2018-07-05T10:00:21.201Z,4676.00
2018-07-05T10:01:20.967Z,4704.00
2018-07-05T10:02:20.956Z,4704.00
2018-07-05T10:03:20.952Z,4736.00
2018-07-05T10:04:20.938Z,4780.00
2018-07-05T10:05:20.981Z,4832.00
2018-07-05T10:06:20.914Z,4868.00
2018-07-05T10:07:20.911Z,4928.00
2018-07-05T10:08:20.912Z,4940.00
2018-07-05T10:09:21.177Z,4972.00
2018-07-05T10:10:21.002Z,5020.00
2018-07-05T10:11:20.953Z,5080.00
2018-07-05T10:12:20.874Z,5116.00
2018-07-05T10:13:20.907Z,5152.00
2018-07-05T10:14:20.845Z,5188.00
2018-07-05T10:15:20.910Z,5252.00
2018-07-05T10:16:20.826Z,5344.00
2018-07-05T10:17:20.823Z,5380.00
2018-07-05T10:18:20.798Z,5432.00
2018-07-05T10:19:20.803Z,5500.00
2018-07-05T10:20:21.160Z,5572.00
2018-07-05T10:21:20.763Z,5672.00
2018-07-05T10:22:20.761Z,5736.00
2018-07-05T10:23:20.745Z,5720.00
2018-07-05T10:24:20.735Z,5748.00
2018-07-05T10:25:20.791Z,5804.00
2018-07-05T10:26:20.712Z,5808.00
2018-07-05T10:27:20.787Z,5916.00
2018-07-05T10:28:20.696Z,6004.00
2018-07-05T10:29:20.687Z,6044.00
2018-07-05T10:30:20.750Z,6096.00
2018-07-05T10:31:20.687Z,6096.00
2018-07-05T10:32:20.645Z,6032.00
2018-07-05T10:33:20.635Z,6000.00
2018-07-05T10:34:20.907Z,5936.00
2018-07-05T10:35:20.695Z,5932.00
2018-07-05T10:36:20.607Z,6036.00
2018-07-05T10:37:20.605Z,6116.00
2018-07-05T10:38:20.750Z,6180.00
2018-07-05T10:39:20.570Z,6188.00
2018-07-05T10:40:20.663Z,6100.00
2018-07-05T10:41:20.547Z,6012.00
2018-07-05T10:42:20.548Z,5944.00
2018-07-05T10:43:20.536Z,6044.00
2018-07-05T10:44:20.519Z,6076.00
2018-07-05T10:45:20.585Z,5968.00
2018-07-05T10:46:20.518Z,5676.00
2018-07-05T10:47:20.538Z,5632.00
2018-07-05T10:48:20.500Z,5580.00
2018-07-05T10:49:20.474Z,5648.00
2018-07-05T10:50:20.530Z,5592.00
2018-07-05T10:51:20.503Z,5540.00
2018-07-05T10:52:20.436Z,5644.00
2018-07-05T10:53:20.415Z,5820.00
2018-07-05T10:54:20.415Z,5960.00
2018-07-05T10:55:20.549Z,6060.00
2018-07-05T10:56:20.423Z,6100.00
2018-07-05T10:57:20.382Z,6148.00
2018-07-05T10:58:20.360Z,6092.00
2018-07-05T10:59:20.774Z,6116.00
2018-07-05T11:00:20.492Z,6132.00
2018-07-05T11:01:20.316Z,6232.00
2018-07-05T11:02:20.324Z,6220.00
2018-07-05T11:03:20.307Z,6292.00
2018-07-05T11:04:20.301Z,6040.00
2018-07-05T11:05:20.365Z,5960.00
2018-07-05T11:06:20.278Z,5792.00
2018-07-05T11:07:20.271Z,5548.00
2018-07-05T11:08:20.259Z,5428.00
2018-07-05T11:09:20.262Z,5432.00
2018-07-05T11:10:20.318Z,5416.00
2018-07-05T11:11:20.228Z,5432.00
2018-07-05T11:12:20.213Z,5524.00
2018-07-05T11:13:20.200Z,5556.00
2018-07-05T11:14:20.229Z,5640.00
2018-07-05T11:15:20.332Z,5736.00
2018-07-05T11:16:20.166Z,5820.00
2018-07-05T11:17:20.154Z,5940.00
2018-07-05T11:18:20.141Z,6092.00
2018-07-05T11:19:20.135Z,6044.00
2018-07-05T11:20:20.188Z,6048.00
2018-07-05T11:21:20.662Z,6040.00
2018-07-05T11:22:20.102Z,6104.00
2018-07-05T11:23:20.790Z,6168.00
2018-07-05T11:24:20.082Z,6052.00
2018-07-05T11:25:20.137Z,5896.00
2018-07-05T11:26:20.060Z,5784.00
2018-07-05T11:27:20.033Z,5740.00
2018-07-05T11:28:20.042Z,5720.00
2018-07-05T11:29:20.023Z,5740.00
2018-07-05T11:30:20.193Z,5696.00
2018-07-05T11:31:20.039Z,5668.00
2018-07-05T11:32:19.992Z,5584.00
2018-07-05T11:33:19.975Z,5456.00
2018-07-05T11:34:20.532Z,5468.00
2018-07-05T11:35:20.036Z,5452.00
2018-07-05T11:36:19.956Z,5452.00
2018-07-05T11:37:19.931Z,5504.00
2018-07-05T11:38:19.940Z,5508.00
2018-07-05T11:39:19.917Z,5628.00
2018-07-05T11:40:19.903Z,5776.00
2018-07-05T11:41:19.969Z,5792.00
2018-07-05T11:42:19.894Z,5888.00
2018-07-05T11:43:19.878Z,5952.00
2018-07-05T11:44:19.864Z,5996.00
2018-07-05T11:45:19.849Z,6192.00
2018-07-05T11:46:19.915Z,6612.00
2018-07-05T11:47:19.838Z,7000.00
2018-07-05T11:48:20.316Z,6976.00
2018-07-05T11:49:20.530Z,6956.00
2018-07-05T11:50:19.793Z,7016.00
2018-07-05T11:51:19.864Z,6932.00
2018-07-05T11:52:19.934Z,6844.00
2018-07-05T11:53:19.756Z,6596.00
2018-07-05T11:54:24.531Z,6352.00
2018-07-05T11:55:19.736Z,6268.00
2018-07-05T11:56:19.806Z,6376.00
2018-07-05T11:57:19.720Z,6444.00
2018-07-05T11:58:19.710Z,6692.00
2018-07-05T11:59:19.705Z,7024.00
2018-07-05T12:00:19.687Z,7220.00
2018-07-05T12:01:19.763Z,7192.00
2018-07-05T12:02:19.791Z,7100.00
2018-07-05T12:03:19.661Z,6728.00
2018-07-05T12:04:19.665Z,6052.00
2018-07-05T12:05:19.638Z,5264.00
2018-07-05T12:06:19.716Z,4652.00
2018-07-05T12:07:19.617Z,4384.00
2018-07-05T12:08:19.604Z,4248.00
2018-07-05T12:09:19.589Z,4152.00
2018-07-05T12:10:19.577Z,4120.00
2018-07-05T12:11:19.630Z,4076.00
2018-07-05T12:12:19.561Z,4048.00
2018-07-05T12:13:19.543Z,4044.00
2018-07-05T12:14:19.648Z,4032.00
2018-07-05T12:15:19.542Z,4044.00
2018-07-05T12:16:19.590Z,4080.00
2018-07-05T12:17:19.508Z,4124.00
2018-07-05T12:18:19.500Z,4112.00
2018-07-05T12:19:19.618Z,4188.00
2018-07-05T12:20:19.474Z,4236.00
2018-07-05T12:21:19.554Z,4244.00
2018-07-05T12:22:19.447Z,4320.00
2018-07-05T12:23:19.447Z,4452.00
2018-07-05T12:24:19.463Z,4552.00
2018-07-05T12:25:19.433Z,4680.00
2018-07-05T12:26:19.482Z,4780.00
2018-07-05T12:27:19.390Z,4828.00
2018-07-05T12:28:19.382Z,4800.00
2018-07-05T12:29:19.458Z,4772.00
2018-07-05T12:30:19.466Z,4716.00
2018-07-05T12:31:19.432Z,4692.00
2018-07-05T12:32:19.337Z,4732.00
2018-07-05T12:33:19.338Z,4832.00
2018-07-05T12:34:19.312Z,4996.00
2018-07-05T12:35:19.296Z,5240.00
2018-07-05T12:36:19.410Z,5416.00
2018-07-05T12:37:19.284Z,5348.00
2018-07-05T12:38:19.431Z,5284.00
2018-07-05T12:39:19.276Z,5136.00
2018-07-05T12:40:19.308Z,4996.00
2018-07-05T12:41:19.288Z,4792.00
2018-07-05T12:42:19.281Z,4668.00
2018-07-05T12:43:19.210Z,4576.00
2018-07-05T12:44:19.203Z,4508.00
2018-07-05T12:45:19.197Z,4480.00
2018-07-05T12:46:19.297Z,4468.00
2018-07-05T12:47:19.168Z,4460.00
2018-07-05T12:48:19.170Z,4304.00
2018-07-05T12:49:19.145Z,4036.00
2018-07-05T12:50:19.130Z,3888.00
2018-07-05T12:51:19.177Z,3784.00
2018-07-05T12:52:19.111Z,3428.00
2018-07-05T12:53:19.100Z,3488.00
2018-07-05T12:54:19.093Z,3400.00
2018-07-05T12:55:19.075Z,3368.00
2018-07-05T12:56:19.119Z,3584.00
2018-07-05T12:57:19.062Z,3776.00
2018-07-05T12:58:19.212Z,3984.00
2018-07-05T12:59:19.037Z,4344.00
2018-07-05T13:00:19.079Z,4688.00
2018-07-05T13:01:19.069Z,4872.00
2018-07-05T13:02:19.044Z,4812.00
2018-07-05T13:03:19.116Z,4820.00
2018-07-05T13:04:19.102Z,4976.00
2018-07-05T13:05:18.968Z,4968.00
2018-07-05T13:06:19.018Z,4784.00
2018-07-05T13:07:18.957Z,4484.00
2018-07-05T13:08:19.021Z,3980.00
2018-07-05T13:09:19.108Z,3624.00
2018-07-05T13:10:18.998Z,2732.00
2018-07-05T13:11:19.338Z,2300.00
2018-07-05T13:12:18.901Z,2212.00
2018-07-05T13:13:19.137Z,2224.00
2018-07-05T13:14:18.884Z,2212.00
2018-07-05T13:15:18.867Z,2376.00
2018-07-05T13:16:18.947Z,2528.00
2018-07-05T13:17:18.854Z,2716.00
2018-07-05T13:18:18.842Z,2916.00
2018-07-05T13:19:18.816Z,3076.00
2018-07-05T13:20:18.812Z,3128.00
2018-07-05T13:21:18.994Z,3176.00
2018-07-05T13:22:18.932Z,3244.00
2018-07-05T13:23:18.803Z,3380.00
2018-07-05T13:24:19.003Z,3516.00
2018-07-05T13:25:18.750Z,3724.00
2018-07-05T13:26:18.748Z,3764.00
2018-07-05T13:27:18.806Z,3832.00
2018-07-05T13:28:18.728Z,3892.00
2018-07-05T13:29:18.712Z,3936.00
2018-07-05T13:30:18.712Z,3980.00
2018-07-05T13:31:18.690Z,4048.00
2018-07-05T13:32:18.754Z,4124.00
2018-07-05T13:33:18.667Z,4156.00
2018-07-05T13:34:18.667Z,4192.00
2018-07-05T13:35:18.642Z,4224.00
2018-07-05T13:36:18.641Z,4224.00
2018-07-05T13:37:18.703Z,4244.00
2018-07-05T13:38:18.610Z,4304.00
2018-07-05T13:39:18.606Z,4380.00
2018-07-05T13:40:18.604Z,4452.00
2018-07-05T13:41:18.582Z,4528.00
2018-07-05T13:42:18.780Z,4584.00
2018-07-05T13:43:18.568Z,4584.00
2018-07-05T13:44:18.551Z,4472.00
2018-07-05T13:45:18.580Z,4576.00
2018-07-05T13:46:18.534Z,4708.00
2018-07-05T13:47:18.595Z,4884.00
2018-07-05T13:48:18.511Z,5060.00
2018-07-05T13:49:18.496Z,5232.00
2018-07-05T13:50:18.484Z,5412.00
2018-07-05T13:51:18.479Z,5372.00
2018-07-05T13:52:18.526Z,5720.00
2018-07-05T13:53:18.449Z,5672.00
2018-07-05T13:54:18.440Z,5648.00
2018-07-05T13:55:18.425Z,5864.00
2018-07-05T13:56:18.421Z,6028.00
2018-07-05T13:57:18.517Z,5920.00
2018-07-05T13:58:18.424Z,5928.00
2018-07-05T13:59:18.386Z,5944.00
2018-07-05T14:00:18.376Z,5876.00
2018-07-05T14:01:18.398Z,5784.00
2018-07-05T14:02:18.423Z,5692.00
2018-07-05T14:03:18.349Z,5556.00
2018-07-05T14:04:18.327Z,5520.00
2018-07-05T14:05:18.326Z,5444.00
2018-07-05T14:06:18.310Z,5396.00
2018-07-05T14:07:18.380Z,5392.00
2018-07-05T14:08:18.320Z,5396.00
2018-07-05T14:09:18.346Z,5408.00
2018-07-05T14:10:18.264Z,5420.00
2018-07-05T14:11:18.244Z,5636.00
2018-07-05T14:12:18.306Z,5992.00
2018-07-05T14:13:18.231Z,6392.00
2018-07-05T14:14:18.220Z,6712.00
2018-07-05T14:15:18.215Z,7076.00
2018-07-05T14:16:18.210Z,7588.00
2018-07-05T14:17:18.374Z,7556.00
2018-07-05T14:18:18.224Z,7400.00
2018-07-05T14:19:18.175Z,8864.00
2018-07-05T14:20:18.165Z,9644.00
2018-07-05T14:21:18.151Z,10468.00
2018-07-05T14:22:18.332Z,9676.00
2018-07-05T14:23:19.442Z,9776.00
2018-07-05T14:24:18.118Z,9724.00
2018-07-05T14:25:18.231Z,9188.00
2018-07-05T14:26:18.099Z,8204.00
2018-07-05T14:27:18.157Z,7036.00
2018-07-05T14:28:18.071Z,6516.00
2018-07-05T14:29:18.086Z,5756.00
2018-07-05T14:30:18.051Z,4920.00
2018-07-05T14:31:18.043Z,4500.00
2018-07-05T14:32:18.200Z,4104.00
2018-07-05T14:33:18.122Z,3688.00
2018-07-05T14:34:18.009Z,3420.00
2018-07-05T14:35:18.171Z,3552.00
2018-07-05T14:36:18.081Z,3776.00
2018-07-05T14:37:18.532Z,3884.00
2018-07-05T14:38:18.224Z,3804.00
2018-07-05T14:39:17.981Z,3372.00
2018-07-05T14:40:17.951Z,2948.00
2018-07-05T14:41:17.938Z,2724.00
2018-07-05T14:42:18.175Z,2744.00
2018-07-05T14:43:18.218Z,2836.00
2018-07-05T14:44:18.548Z,2948.00
2018-07-05T14:45:18.164Z,3124.00
2018-07-05T14:46:18.084Z,3248.00
2018-07-05T14:47:18.064Z,3348.00
2018-07-05T14:48:18.022Z,3384.00
2018-07-05T14:49:17.838Z,3380.00
2018-07-05T14:50:18.050Z,3336.00
2018-07-05T14:51:17.994Z,3264.00
2018-07-05T14:52:18.157Z,3092.00
2018-07-05T14:53:18.044Z,2968.00
2018-07-05T14:54:17.816Z,2988.00
2018-07-05T14:55:17.794Z,3048.00
2018-07-05T14:56:18.030Z,2964.00
2018-07-05T14:57:17.914Z,2812.00
2018-07-05T14:58:18.775Z,2700.00
2018-07-05T14:59:18.666Z,2584.00
2018-07-05T15:00:17.814Z,2512.00
2018-07-05T15:01:17.795Z,2488.00
2018-07-05T15:02:17.696Z,2464.00
2018-07-05T15:03:18.383Z,2428.00
2018-07-05T15:04:17.719Z,2416.00
2018-07-05T15:05:18.277Z,2400.00
2018-07-05T15:06:17.815Z,2352.00
2018-07-05T15:07:18.100Z,2280.00
2018-07-05T15:08:17.707Z,2208.00
2018-07-05T15:09:17.804Z,2172.00
2018-07-05T15:10:17.733Z,2140.00
2018-07-05T15:13:17.476Z,1956.00
2018-07-05T15:14:16.961Z,1912.00
2018-07-05T15:15:17.110Z,1908.00
2018-07-05T15:16:16.903Z,1828.00
2018-07-05T15:17:16.838Z,1724.00
2018-07-05T15:18:16.914Z,1612.00
2018-07-05T15:19:16.829Z,1468.00
2018-07-05T15:20:16.815Z,1380.00
2018-07-05T15:21:16.779Z,1360.00
2018-07-05T15:22:16.761Z,1336.00
2018-07-05T15:23:17.037Z,1380.00
2018-07-05T15:24:17.154Z,1440.00
2018-07-05T15:25:16.967Z,1444.00
2018-07-05T15:26:16.721Z,1380.00
2018-07-05T15:27:17.135Z,1300.00
2018-07-05T15:28:16.789Z,1184.00
2018-07-05T15:29:19.919Z,1088.00
2018-07-05T15:30:25.304Z,1032.00
2018-07-05T15:31:16.765Z,1048.00
2018-07-05T15:34:25.312Z,1048.00
2018-07-05T15:35:23.561Z,1016.00
2018-07-05T15:36:23.559Z,988.00
2018-07-05T15:37:23.594Z,980.00
2018-07-05T15:38:23.374Z,984.00
2018-07-05T15:39:23.425Z,1012.00
2018-07-05T15:40:23.390Z,1032.00
2018-07-05T15:41:25.137Z,1032.00
2018-07-05T15:42:23.416Z,1032.00
2018-07-05T15:43:23.499Z,1036.00
2018-07-05T15:44:23.241Z,1064.00
2018-07-05T15:45:23.235Z,1080.00
2018-07-05T15:46:23.213Z,1092.00
2018-07-05T15:47:23.418Z,1104.00
2018-07-05T15:48:23.247Z,1084.00
2018-07-05T15:49:23.186Z,1052.00
2018-07-05T15:50:23.176Z,1004.00
2018-07-05T15:51:23.187Z,948.00
2018-07-05T15:52:23.166Z,912.00
2018-07-05T15:53:23.240Z,888.00
2018-07-05T15:54:23.222Z,884.00
2018-07-05T15:55:23.124Z,892.00
2018-07-05T15:56:23.110Z,876.00
2018-07-05T15:57:23.100Z,836.00
2018-07-05T15:58:23.178Z,804.00
2018-07-05T15:59:23.254Z,764.00
2018-07-05T16:00:23.084Z,716.00
2018-07-05T16:01:23.070Z,676.00
2018-07-05T16:02:23.098Z,632.00
2018-07-05T16:03:23.122Z,604.00
2018-07-05T16:04:23.041Z,608.00
2018-07-05T16:05:23.036Z,608.00
2018-07-05T16:06:23.019Z,568.00
2018-07-05T16:07:22.993Z,516.00
2018-07-05T16:08:23.059Z,488.00
2018-07-05T16:09:23.415Z,488.00
2018-07-05T16:10:23.044Z,528.00
2018-07-05T16:11:22.964Z,568.00
2018-07-05T16:12:22.943Z,604.00
2018-07-05T16:13:22.929Z,656.00
2018-07-05T16:14:22.978Z,684.00
2018-07-05T16:15:22.922Z,672.00
2018-07-05T16:16:22.907Z,656.00
2018-07-05T16:17:22.899Z,644.00
2018-07-05T16:18:22.895Z,624.00
2018-07-05T16:19:23.028Z,576.00
2018-07-05T16:20:22.871Z,548.00
2018-07-05T16:21:22.860Z,540.00
2018-07-05T16:22:22.833Z,552.00
2018-07-05T16:23:22.823Z,552.00
2018-07-05T16:24:23.509Z,556.00
2018-07-05T16:25:22.839Z,584.00
2018-07-05T16:26:23.736Z,588.00
2018-07-05T16:27:23.122Z,572.00
2018-07-05T16:28:22.880Z,548.00
2018-07-05T16:29:22.840Z,560.00
2018-07-05T16:30:22.759Z,556.00
2018-07-05T16:31:22.751Z,544.00
2018-07-05T16:32:22.734Z,532.00
2018-07-05T16:33:22.965Z,548.00
2018-07-05T16:34:22.887Z,580.00
2018-07-05T16:35:22.886Z,620.00
2018-07-05T16:36:22.693Z,652.00
2018-07-05T16:37:22.687Z,676.00
2018-07-05T16:38:22.665Z,704.00
2018-07-05T16:39:22.722Z,728.00
2018-07-05T16:40:22.634Z,728.00
2018-07-05T16:41:22.651Z,740.00
2018-07-05T16:42:22.725Z,760.00
2018-07-05T16:43:22.653Z,776.00
2018-07-05T16:44:22.695Z,812.00
2018-07-05T16:45:22.594Z,908.00
2018-07-05T16:46:22.602Z,1000.00
2018-07-05T16:47:22.587Z,992.00
2018-07-05T16:48:22.565Z,976.00
2018-07-05T16:49:22.669Z,964.00
2018-07-05T16:50:22.587Z,944.00
2018-07-05T16:51:23.800Z,936.00
2018-07-05T16:52:22.530Z,892.00
2018-07-05T16:53:22.634Z,840.00
2018-07-05T16:54:22.550Z,748.00
2018-07-05T16:55:22.481Z,700.00
2018-07-05T16:56:22.484Z,676.00
2018-07-05T16:57:22.480Z,644.00
2018-07-05T16:58:22.448Z,620.00
2018-07-05T16:59:22.519Z,644.00
2018-07-05T17:00:22.432Z,636.00
2018-07-05T17:01:22.422Z,612.00
2018-07-05T17:02:22.406Z,660.00
2018-07-05T17:03:22.400Z,756.00
2018-07-05T17:04:22.454Z,840.00
2018-07-05T17:05:22.488Z,900.00
2018-07-05T17:06:22.366Z,816.00
2018-07-05T17:07:22.338Z,664.00
2018-07-05T17:08:22.335Z,568.00
2018-07-05T17:09:22.381Z,512.00
2018-07-05T17:10:22.307Z,484.00
2018-07-05T17:11:22.297Z,488.00
2018-07-05T17:12:22.283Z,488.00
2018-07-05T17:13:22.288Z,484.00
2018-07-05T17:14:22.358Z,516.00
2018-07-05T17:15:22.279Z,568.00
2018-07-05T17:16:22.252Z,644.00
2018-07-05T17:17:22.236Z,728.00
2018-07-05T17:18:22.220Z,832.00
2018-07-05T17:19:22.275Z,980.00
2018-07-05T17:20:22.200Z,1144.00
2018-07-05T17:21:22.187Z,1324.00
2018-07-05T17:22:22.179Z,1496.00
2018-07-05T17:23:22.167Z,1588.00
2018-07-05T17:24:22.152Z,1672.00
2018-07-05T17:25:22.233Z,1708.00
2018-07-05T17:26:22.146Z,1720.00
2018-07-05T17:27:22.181Z,1692.00
2018-07-05T17:28:22.136Z,1692.00
2018-07-05T17:29:22.134Z,1692.00
2018-07-05T17:30:22.151Z,1672.00
2018-07-05T17:31:22.075Z,1624.00
2018-07-05T17:32:22.122Z,1576.00
2018-07-05T17:33:22.061Z,1536.00
2018-07-05T17:34:22.044Z,1500.00
2018-07-05T17:35:22.109Z,1468.00
2018-07-05T17:36:22.029Z,1464.00
2018-07-05T17:37:22.020Z,1464.00
2018-07-05T17:38:22.007Z,1460.00
2018-07-05T17:39:22.013Z,1448.00
2018-07-05T17:40:22.057Z,1428.00
2018-07-05T17:41:21.974Z,1412.00
2018-07-05T17:42:21.968Z,1404.00
2018-07-05T17:43:21.965Z,1424.00
2018-07-05T17:44:21.946Z,1440.00
2018-07-05T17:45:22.007Z,1460.00
2018-07-05T17:46:21.933Z,1476.00
2018-07-05T17:47:21.908Z,1504.00
2018-07-05T17:48:21.899Z,1544.00
2018-07-05T17:49:21.888Z,1544.00
2018-07-05T17:50:21.957Z,1412.00
2018-07-05T17:51:21.870Z,1284.00
2018-07-05T17:52:21.865Z,1220.00
2018-07-05T17:53:21.843Z,1200.00
2018-07-05T17:54:21.836Z,1248.00
2018-07-05T17:55:22.640Z,1316.00
2018-07-05T17:56:21.811Z,1344.00
2018-07-05T17:57:21.979Z,1348.00
2018-07-05T17:58:21.801Z,1348.00
2018-07-05T17:59:21.957Z,1400.00
2018-07-05T18:00:21.856Z,1464.00
2018-07-05T18:01:21.775Z,1880.00
2018-07-05T18:02:21.746Z,1696.00
2018-07-05T18:03:21.739Z,1656.00
2018-07-05T18:04:21.721Z,1620.00
2018-07-05T18:05:21.818Z,1636.00
2018-07-05T18:06:21.705Z,1780.00
2018-07-05T18:07:21.698Z,2036.00
2018-07-05T18:08:21.683Z,2612.00
2018-07-05T18:09:21.678Z,2784.00
2018-07-05T18:10:21.724Z,2596.00
2018-07-05T18:11:21.649Z,2232.00
2018-07-05T18:12:21.636Z,2060.00
2018-07-05T18:13:21.626Z,1872.00
2018-07-05T18:14:21.616Z,1772.00
2018-07-05T18:15:21.677Z,1780.00
2018-07-05T18:16:21.589Z,1848.00
2018-07-05T18:17:21.569Z,1872.00
2018-07-05T18:18:21.575Z,1896.00
2018-07-05T18:19:21.560Z,1984.00
2018-07-05T18:20:21.627Z,2272.00
2018-07-05T18:21:21.539Z,2800.00
2018-07-05T18:22:21.526Z,4260.00
2018-07-05T18:23:21.515Z,5600.00
2018-07-05T18:24:21.501Z,6672.00
2018-07-05T18:25:21.570Z,7388.00
2018-07-05T18:26:21.481Z,5444.00
2018-07-05T18:27:21.562Z,3328.00
2018-07-05T18:28:21.459Z,2428.00
2018-07-05T18:29:21.438Z,1956.00
2018-07-05T18:30:21.714Z,1780.00
2018-07-05T18:31:21.432Z,1644.00
2018-07-05T18:32:21.420Z,1524.00
2018-07-05T18:33:21.406Z,1392.00
2018-07-05T18:34:21.411Z,1256.00
2018-07-05T18:35:21.457Z,1176.00
2018-07-05T18:36:21.371Z,1136.00
2018-07-05T18:37:21.362Z,1112.00
2018-07-05T18:38:21.345Z,1108.00
2018-07-05T18:39:21.339Z,1120.00
2018-07-05T18:40:21.409Z,1144.00
2018-07-05T18:41:21.361Z,1172.00
2018-07-05T18:42:21.304Z,1220.00
2018-07-05T18:43:21.296Z,1256.00
2018-07-05T18:44:23.103Z,1292.00
2018-07-05T18:45:21.342Z,1328.00
2018-07-05T18:46:21.265Z,1352.00
2018-07-05T18:47:21.259Z,1356.00
2018-07-05T18:48:21.247Z,1356.00
2018-07-05T18:49:21.226Z,1344.00
2018-07-05T18:50:21.290Z,1324.00
2018-07-05T18:51:21.217Z,1296.00
2018-07-05T18:52:21.192Z,1248.00
2018-07-05T18:53:21.184Z,1204.00
2018-07-05T18:54:21.182Z,1152.00
2018-07-05T18:55:21.230Z,1108.00
2018-07-05T18:56:21.158Z,1064.00
2018-07-05T18:57:21.142Z,1032.00
2018-07-05T18:58:21.177Z,1004.00
2018-07-05T18:59:21.137Z,976.00
2018-07-05T19:00:21.199Z,948.00
2018-07-05T19:01:21.092Z,912.00
2018-07-05T19:02:21.088Z,884.00
2018-07-05T19:03:21.074Z,852.00
2018-07-05T19:04:21.062Z,828.00
2018-07-05T19:05:21.054Z,808.00
2018-07-05T19:06:21.112Z,780.00
2018-07-05T19:07:21.034Z,752.00
2018-07-05T19:08:21.020Z,720.00
2018-07-05T19:09:21.013Z,684.00
2018-07-05T19:10:20.995Z,652.00
2018-07-05T19:11:21.065Z,628.00
2018-07-05T19:12:20.976Z,596.00
2018-07-05T19:13:20.962Z,568.00
2018-07-05T19:14:20.950Z,540.00
2018-07-05T19:15:20.944Z,520.00
2018-07-05T19:16:21.134Z,496.00
2018-07-05T19:17:20.926Z,476.00
2018-07-05T19:18:20.909Z,456.00
2018-07-05T19:19:20.900Z,436.00
2018-07-05T19:20:20.890Z,420.00
2018-07-05T19:21:20.997Z,396.00
2018-07-05T19:22:20.866Z,380.00
2018-07-05T19:23:20.851Z,360.00
2018-07-05T19:24:20.842Z,344.00
2018-07-05T19:25:20.835Z,328.00
2018-07-05T19:26:20.895Z,308.00
2018-07-05T19:27:20.810Z,292.00
2018-07-05T19:28:20.807Z,276.00
2018-07-05T19:29:20.793Z,264.00
2018-07-05T19:30:20.800Z,248.00
2018-07-05T19:31:20.840Z,236.00
2018-07-05T19:32:20.757Z,220.00
2018-07-05T19:33:20.793Z,208.00
2018-07-05T19:34:20.790Z,196.00
2018-07-05T19:35:20.721Z,180.00
2018-07-05T19:36:20.781Z,172.00
2018-07-05T19:37:20.702Z,160.00
2018-07-05T19:38:20.692Z,152.00
2018-07-05T19:39:20.677Z,140.00
2018-07-05T19:40:20.670Z,132.00
2018-07-05T19:41:20.732Z,124.00
2018-07-05T19:42:20.647Z,120.00
2018-07-05T19:43:20.636Z,108.00
2018-07-05T19:44:20.625Z,104.00
2018-07-05T19:45:20.623Z,96.00
2018-07-05T19:46:20.663Z,92.00
2018-07-05T19:47:20.593Z,80.00
2018-07-05T19:48:20.579Z,76.00
2018-07-05T19:49:20.570Z,72.00
2018-07-05T19:50:20.561Z,64.00
2018-07-05T19:51:20.643Z,60.00
2018-07-05T19:52:20.532Z,56.00
2018-07-05T19:53:20.528Z,52.00
2018-07-05T19:54:20.512Z,48.00
2018-07-05T19:55:20.501Z,44.00
2018-07-05T19:56:20.569Z,40.00
2018-07-05T19:57:20.487Z,36.00
2018-07-05T19:58:20.476Z,32.00
2018-07-05T19:59:20.459Z,28.00
2018-07-05T20:00:20.474Z,28.00